sensor_id;sensor_type;location;lat;lon;timestamp;P1;durP1;ratioP1;P2;durP2;ratioP2
20026;SDS011;10174;42.688;23.344;2023-04-07T00:00:15;25.10;;;13.00;;
20026;SDS011;10174;42.688;23.344;2023-04-07T00:02:42;29.23;;;13.65;;
20026;SDS011;10174;42.688;23.344;2023-04-07T00:05:07;31.80;;;13.65;;
20026;SDS011;10174;42.688;23.344;2023-04-07T00:07:33;24.95;;;13.43;;
20026;SDS011;10174;42.688;23.344;2023-04-07T00:09:58;27.38;;;13.70;;
20026;SDS011;10174;42.688;23.344;2023-04-07T00:12:24;30.60;;;14.15;;
20026;SDS011;10174;42.688;23.344;2023-04-07T00:14:49;25.00;;;12.90;;
20026;SDS011;10174;42.688;23.344;2023-04-07T00:17:14;24.98;;;13.40;;
20026;SDS011;10174;42.688;23.344;2023-04-07T00:19:40;25.02;;;13.07;;
20026;SDS011;10174;42.688;23.344;2023-04-07T00:22:05;31.52;;;13.35;;
20026;SDS011;10174;42.688;23.344;2023-04-07T00:24:31;24.88;;;13.52;;
20026;SDS011;10174;42.688;23.344;2023-04-07T00:26:56;29.65;;;14.10;;
20026;SDS011;10174;42.688;23.344;2023-04-07T00:29:22;26.40;;;13.15;;
20026;SDS011;10174;42.688;23.344;2023-04-07T00:31:47;38.15;;;19.55;;
20026;SDS011;10174;42.688;23.344;2023-04-07T00:34:12;42.83;;;22.65;;
20026;SDS011;10174;42.688;23.344;2023-04-07T00:36:38;51.03;;;24.60;;
20026;SDS011;10174;42.688;23.344;2023-04-07T00:39:03;58.33;;;25.35;;
20026;SDS011;10174;42.688;23.344;2023-04-07T00:41:29;48.83;;;24.60;;
20026;SDS011;10174;42.688;23.344;2023-04-07T00:44:01;52.85;;;24.27;;
20026;SDS011;10174;42.688;23.344;2023-04-07T00:46:27;51.88;;;25.05;;
20026;SDS011;10174;42.688;23.344;2023-04-07T00:48:52;52.85;;;24.58;;
20026;SDS011;10174;42.688;23.344;2023-04-07T00:51:19;55.13;;;23.80;;
20026;SDS011;10174;42.688;23.344;2023-04-07T00:53:46;57.10;;;25.10;;
20026;SDS011;10174;42.688;23.344;2023-04-07T00:56:12;45.88;;;23.60;;
20026;SDS011;10174;42.688;23.344;2023-04-07T00:58:38;51.20;;;24.10;;
20026;SDS011;10174;42.688;23.344;2023-04-07T01:01:04;49.00;;;23.70;;
20026;SDS011;10174;42.688;23.344;2023-04-07T01:03:40;53.65;;;24.38;;
20026;SDS011;10174;42.688;23.344;2023-04-07T01:06:13;49.50;;;23.60;;
20026;SDS011;10174;42.688;23.344;2023-04-07T01:09:04;46.53;;;23.35;;
20026;SDS011;10174;42.688;23.344;2023-04-07T01:14:45;43.63;;;22.17;;
20026;SDS011;10174;42.688;23.344;2023-04-07T01:17:15;42.03;;;21.67;;
20026;SDS011;10174;42.688;23.344;2023-04-07T01:19:47;52.90;;;25.40;;
20026;SDS011;10174;42.688;23.344;2023-04-07T01:22:22;41.92;;;22.23;;
20026;SDS011;10174;42.688;23.344;2023-04-07T01:31:05;50.22;;;22.67;;
20026;SDS011;10174;42.688;23.344;2023-04-07T01:33:34;50.72;;;24.02;;
20026;SDS011;10174;42.688;23.344;2023-04-07T01:36:01;52.55;;;24.23;;
20026;SDS011;10174;42.688;23.344;2023-04-07T01:38:32;47.75;;;23.80;;
20026;SDS011;10174;42.688;23.344;2023-04-07T01:40:57;47.85;;;23.73;;
20026;SDS011;10174;42.688;23.344;2023-04-07T01:43:24;56.55;;;25.15;;
20026;SDS011;10174;42.688;23.344;2023-04-07T01:45:52;44.35;;;23.95;;
20026;SDS011;10174;42.688;23.344;2023-04-07T01:48:18;45.50;;;23.10;;
20026;SDS011;10174;42.688;23.344;2023-04-07T01:50:45;50.75;;;23.08;;
20026;SDS011;10174;42.688;23.344;2023-04-07T01:53:11;51.00;;;24.00;;
20026;SDS011;10174;42.688;23.344;2023-04-07T01:55:38;49.90;;;23.20;;
20026;SDS011;10174;42.688;23.344;2023-04-07T01:58:04;46.17;;;22.60;;
20026;SDS011;10174;42.688;23.344;2023-04-07T02:00:30;57.90;;;25.55;;
20026;SDS011;10174;42.688;23.344;2023-04-07T02:02:56;44.28;;;23.65;;
20026;SDS011;10174;42.688;23.344;2023-04-07T02:05:29;50.53;;;24.13;;
20026;SDS011;10174;42.688;23.344;2023-04-07T02:07:57;51.05;;;23.60;;
20026;SDS011;10174;42.688;23.344;2023-04-07T02:10:26;50.28;;;24.23;;
20026;SDS011;10174;42.688;23.344;2023-04-07T02:12:53;50.42;;;24.75;;
20026;SDS011;10174;42.688;23.344;2023-04-07T02:15:21;58.30;;;24.65;;
20026;SDS011;10174;42.688;23.344;2023-04-07T02:17:48;62.47;;;23.98;;
20026;SDS011;10174;42.688;23.344;2023-04-07T02:20:17;48.88;;;23.48;;
20026;SDS011;10174;42.688;23.344;2023-04-07T02:22:44;54.00;;;25.38;;
20026;SDS011;10174;42.688;23.344;2023-04-07T02:28:05;45.38;;;23.90;;
20026;SDS011;10174;42.688;23.344;2023-04-07T02:30:31;55.13;;;25.02;;
20026;SDS011;10174;42.688;23.344;2023-04-07T02:32:57;52.35;;;24.35;;
20026;SDS011;10174;42.688;23.344;2023-04-07T02:35:22;46.05;;;23.20;;
20026;SDS011;10174;42.688;23.344;2023-04-07T02:37:48;47.55;;;22.38;;
20026;SDS011;10174;42.688;23.344;2023-04-07T02:40:14;45.78;;;23.05;;
20026;SDS011;10174;42.688;23.344;2023-04-07T02:42:40;48.90;;;23.15;;
20026;SDS011;10174;42.688;23.344;2023-04-07T02:45:06;41.30;;;22.65;;
20026;SDS011;10174;42.688;23.344;2023-04-07T02:47:33;48.08;;;23.05;;
20026;SDS011;10174;42.688;23.344;2023-04-07T02:49:59;46.78;;;22.55;;
20026;SDS011;10174;42.688;23.344;2023-04-07T02:52:25;46.35;;;22.52;;
20026;SDS011;10174;42.688;23.344;2023-04-07T02:54:50;42.65;;;21.70;;
20026;SDS011;10174;42.688;23.344;2023-04-07T02:57:16;46.05;;;22.30;;
20026;SDS011;10174;42.688;23.344;2023-04-07T02:59:41;46.53;;;24.90;;
20026;SDS011;10174;42.688;23.344;2023-04-07T03:02:07;42.50;;;21.85;;
20026;SDS011;10174;42.688;23.344;2023-04-07T03:04:33;41.25;;;21.63;;
20026;SDS011;10174;42.688;23.344;2023-04-07T03:06:58;44.13;;;22.10;;
20026;SDS011;10174;42.688;23.344;2023-04-07T03:09:24;48.28;;;22.33;;
20026;SDS011;10174;42.688;23.344;2023-04-07T03:11:50;41.95;;;21.98;;
20026;SDS011;10174;42.688;23.344;2023-04-07T03:14:16;45.03;;;22.65;;
20026;SDS011;10174;42.688;23.344;2023-04-07T03:16:41;45.30;;;21.38;;
20026;SDS011;10174;42.688;23.344;2023-04-07T03:19:07;57.13;;;22.25;;
20026;SDS011;10174;42.688;23.344;2023-04-07T03:21:33;46.08;;;22.33;;
20026;SDS011;10174;42.688;23.344;2023-04-07T03:24:00;44.67;;;21.23;;
20026;SDS011;10174;42.688;23.344;2023-04-07T03:26:25;53.72;;;22.85;;
20026;SDS011;10174;42.688;23.344;2023-04-07T03:28:51;60.47;;;23.23;;
20026;SDS011;10174;42.688;23.344;2023-04-07T03:31:17;51.25;;;22.73;;
20026;SDS011;10174;42.688;23.344;2023-04-07T03:33:42;47.65;;;21.15;;
20026;SDS011;10174;42.688;23.344;2023-04-07T03:36:07;58.85;;;22.95;;
20026;SDS011;10174;42.688;23.344;2023-04-07T03:38:33;48.40;;;20.45;;
20026;SDS011;10174;42.688;23.344;2023-04-07T03:40:58;47.58;;;20.90;;
20026;SDS011;10174;42.688;23.344;2023-04-07T03:43:24;45.30;;;21.75;;
20026;SDS011;10174;42.688;23.344;2023-04-07T03:45:49;41.72;;;20.85;;
20026;SDS011;10174;42.688;23.344;2023-04-07T03:48:17;45.15;;;22.42;;
20026;SDS011;10174;42.688;23.344;2023-04-07T03:50:42;52.90;;;23.27;;
20026;SDS011;10174;42.688;23.344;2023-04-07T03:53:08;48.47;;;23.90;;
20026;SDS011;10174;42.688;23.344;2023-04-07T03:55:33;48.83;;;24.15;;
20026;SDS011;10174;42.688;23.344;2023-04-07T03:57:59;51.70;;;25.27;;
20026;SDS011;10174;42.688;23.344;2023-04-07T04:00:24;55.53;;;26.40;;
20026;SDS011;10174;42.688;23.344;2023-04-07T04:02:51;46.47;;;24.33;;
20026;SDS011;10174;42.688;23.344;2023-04-07T04:05:16;52.63;;;25.02;;
20026;SDS011;10174;42.688;23.344;2023-04-07T04:07:42;58.97;;;25.02;;
20026;SDS011;10174;42.688;23.344;2023-04-07T04:10:07;53.53;;;25.52;;
20026;SDS011;10174;42.688;23.344;2023-04-07T04:12:33;53.53;;;25.77;;
20026;SDS011;10174;42.688;23.344;2023-04-07T04:14:58;59.58;;;27.67;;
20026;SDS011;10174;42.688;23.344;2023-04-07T04:17:24;59.70;;;28.35;;
20026;SDS011;10174;42.688;23.344;2023-04-07T04:19:50;59.53;;;29.02;;
20026;SDS011;10174;42.688;23.344;2023-04-07T04:22:15;58.75;;;29.75;;
20026;SDS011;10174;42.688;23.344;2023-04-07T04:24:41;64.72;;;31.13;;
20026;SDS011;10174;42.688;23.344;2023-04-07T04:27:07;65.05;;;29.77;;
20026;SDS011;10174;42.688;23.344;2023-04-07T04:29:32;67.45;;;32.65;;
20026;SDS011;10174;42.688;23.344;2023-04-07T04:31:57;69.63;;;31.35;;
20026;SDS011;10174;42.688;23.344;2023-04-07T04:34:23;59.17;;;31.63;;
20026;SDS011;10174;42.688;23.344;2023-04-07T04:36:48;57.75;;;28.20;;
20026;SDS011;10174;42.688;23.344;2023-04-07T04:39:14;65.88;;;27.70;;
20026;SDS011;10174;42.688;23.344;2023-04-07T04:41:39;67.60;;;29.25;;
20026;SDS011;10174;42.688;23.344;2023-04-07T04:44:05;58.67;;;27.40;;
20026;SDS011;10174;42.688;23.344;2023-04-07T04:46:30;54.55;;;25.60;;
20026;SDS011;10174;42.688;23.344;2023-04-07T04:48:57;59.42;;;24.45;;
20026;SDS011;10174;42.688;23.344;2023-04-07T04:51:22;48.40;;;24.10;;
20026;SDS011;10174;42.688;23.344;2023-04-07T04:53:48;46.70;;;23.08;;
20026;SDS011;10174;42.688;23.344;2023-04-07T04:56:13;47.55;;;24.63;;
20026;SDS011;10174;42.688;23.344;2023-04-07T04:58:39;47.70;;;23.80;;
20026;SDS011;10174;42.688;23.344;2023-04-07T05:01:06;47.85;;;23.67;;
20026;SDS011;10174;42.688;23.344;2023-04-07T05:03:31;49.17;;;23.02;;
20026;SDS011;10174;42.688;23.344;2023-04-07T05:05:57;41.25;;;21.95;;
20026;SDS011;10174;42.688;23.344;2023-04-07T05:08:22;46.08;;;22.17;;
20026;SDS011;10174;42.688;23.344;2023-04-07T05:10:47;49.15;;;23.48;;
20026;SDS011;10174;42.688;23.344;2023-04-07T05:13:13;53.20;;;24.85;;
20026;SDS011;10174;42.688;23.344;2023-04-07T05:15:39;50.90;;;23.52;;
20026;SDS011;10174;42.688;23.344;2023-04-07T05:18:05;51.95;;;24.23;;
20026;SDS011;10174;42.688;23.344;2023-04-07T05:20:30;47.28;;;24.70;;
20026;SDS011;10174;42.688;23.344;2023-04-07T05:22:56;49.00;;;23.60;;
20026;SDS011;10174;42.688;23.344;2023-04-07T05:25:22;43.88;;;22.08;;
20026;SDS011;10174;42.688;23.344;2023-04-07T05:27:47;58.78;;;26.05;;
20026;SDS011;10174;42.688;23.344;2023-04-07T05:30:13;50.28;;;24.20;;
20026;SDS011;10174;42.688;23.344;2023-04-07T05:32:38;43.60;;;21.50;;
20026;SDS011;10174;42.688;23.344;2023-04-07T05:35:04;36.97;;;20.17;;
20026;SDS011;10174;42.688;23.344;2023-04-07T05:37:30;49.53;;;23.30;;
20026;SDS011;10174;42.688;23.344;2023-04-07T05:39:55;44.55;;;21.10;;
20026;SDS011;10174;42.688;23.344;2023-04-07T05:42:21;35.97;;;19.95;;
20026;SDS011;10174;42.688;23.344;2023-04-07T05:44:46;40.95;;;19.63;;
20026;SDS011;10174;42.688;23.344;2023-04-07T05:47:11;42.53;;;20.77;;
20026;SDS011;10174;42.688;23.344;2023-04-07T05:49:37;44.38;;;21.75;;
20026;SDS011;10174;42.688;23.344;2023-04-07T05:52:09;43.72;;;21.88;;
20026;SDS011;10174;42.688;23.344;2023-04-07T05:54:35;45.78;;;22.88;;
20026;SDS011;10174;42.688;23.344;2023-04-07T05:57:00;45.30;;;22.90;;
20026;SDS011;10174;42.688;23.344;2023-04-07T05:59:26;41.60;;;20.05;;
20026;SDS011;10174;42.688;23.344;2023-04-07T06:01:51;38.35;;;19.50;;
20026;SDS011;10174;42.688;23.344;2023-04-07T06:04:17;45.50;;;20.23;;
20026;SDS011;10174;42.688;23.344;2023-04-07T06:06:42;44.25;;;21.42;;
20026;SDS011;10174;42.688;23.344;2023-04-07T06:09:07;39.15;;;19.92;;
20026;SDS011;10174;42.688;23.344;2023-04-07T06:11:33;36.72;;;18.80;;
20026;SDS011;10174;42.688;23.344;2023-04-07T06:13:58;38.83;;;19.73;;
20026;SDS011;10174;42.688;23.344;2023-04-07T06:16:24;38.60;;;18.75;;
20026;SDS011;10174;42.688;23.344;2023-04-07T06:18:49;41.58;;;19.48;;
20026;SDS011;10174;42.688;23.344;2023-04-07T06:21:15;38.35;;;19.08;;
20026;SDS011;10174;42.688;23.344;2023-04-07T06:23:40;38.03;;;19.90;;
20026;SDS011;10174;42.688;23.344;2023-04-07T06:26:09;38.70;;;20.35;;
20026;SDS011;10174;42.688;23.344;2023-04-07T06:28:38;36.95;;;19.55;;
20026;SDS011;10174;42.688;23.344;2023-04-07T06:31:04;49.88;;;19.85;;
20026;SDS011;10174;42.688;23.344;2023-04-07T06:33:30;42.05;;;20.55;;
20026;SDS011;10174;42.688;23.344;2023-04-07T06:35:55;37.17;;;20.15;;
20026;SDS011;10174;42.688;23.344;2023-04-07T06:38:21;46.85;;;22.85;;
20026;SDS011;10174;42.688;23.344;2023-04-07T06:40:47;49.58;;;21.17;;
20026;SDS011;10174;42.688;23.344;2023-04-07T06:43:12;43.25;;;21.83;;
20026;SDS011;10174;42.688;23.344;2023-04-07T06:45:38;49.30;;;25.27;;
20026;SDS011;10174;42.688;23.344;2023-04-07T06:48:03;51.35;;;22.52;;
20026;SDS011;10174;42.688;23.344;2023-04-07T06:50:29;43.08;;;20.48;;
20026;SDS011;10174;42.688;23.344;2023-04-07T06:52:54;43.35;;;19.98;;
20026;SDS011;10174;42.688;23.344;2023-04-07T06:55:20;56.88;;;24.90;;
20026;SDS011;10174;42.688;23.344;2023-04-07T06:57:45;52.17;;;22.92;;
20026;SDS011;10174;42.688;23.344;2023-04-07T07:00:11;51.78;;;24.20;;
20026;SDS011;10174;42.688;23.344;2023-04-07T07:02:36;46.05;;;21.45;;
20026;SDS011;10174;42.688;23.344;2023-04-07T07:05:02;46.15;;;22.60;;
20026;SDS011;10174;42.688;23.344;2023-04-07T07:07:29;51.75;;;26.20;;
20026;SDS011;10174;42.688;23.344;2023-04-07T07:09:54;43.00;;;21.30;;
20026;SDS011;10174;42.688;23.344;2023-04-07T07:12:20;47.00;;;19.92;;
20026;SDS011;10174;42.688;23.344;2023-04-07T07:14:45;47.42;;;19.48;;
20026;SDS011;10174;42.688;23.344;2023-04-07T07:17:11;36.22;;;18.45;;
20026;SDS011;10174;42.688;23.344;2023-04-07T07:19:37;48.28;;;18.83;;
20026;SDS011;10174;42.688;23.344;2023-04-07T07:22:02;36.90;;;17.90;;
20026;SDS011;10174;42.688;23.344;2023-04-07T07:24:28;33.17;;;18.85;;
20026;SDS011;10174;42.688;23.344;2023-04-07T07:26:54;36.67;;;17.20;;
20026;SDS011;10174;42.688;23.344;2023-04-07T07:29:21;21.77;;;10.65;;
20026;SDS011;10174;42.688;23.344;2023-04-07T07:31:46;22.00;;;8.82;;
20026;SDS011;10174;42.688;23.344;2023-04-07T07:34:12;17.27;;;8.35;;
20026;SDS011;10174;42.688;23.344;2023-04-07T07:36:37;48.80;;;11.02;;
20026;SDS011;10174;42.688;23.344;2023-04-07T07:39:03;14.73;;;8.75;;
20026;SDS011;10174;42.688;23.344;2023-04-07T07:41:29;53.00;;;24.30;;
20026;SDS011;10174;42.688;23.344;2023-04-07T07:43:54;22.48;;;10.18;;
20026;SDS011;10174;42.688;23.344;2023-04-07T07:46:20;19.65;;;8.27;;
20026;SDS011;10174;42.688;23.344;2023-04-07T07:48:47;14.55;;;7.80;;
20026;SDS011;10174;42.688;23.344;2023-04-07T07:51:13;37.28;;;18.20;;
20026;SDS011;10174;42.688;23.344;2023-04-07T07:53:38;23.65;;;11.82;;
20026;SDS011;10174;42.688;23.344;2023-04-07T07:56:03;13.32;;;7.78;;
20026;SDS011;10174;42.688;23.344;2023-04-07T07:58:29;15.02;;;8.35;;
20026;SDS011;10174;42.688;23.344;2023-04-07T08:00:54;14.40;;;7.60;;
20026;SDS011;10174;42.688;23.344;2023-04-07T08:03:20;16.10;;;7.75;;
20026;SDS011;10174;42.688;23.344;2023-04-07T08:05:46;17.35;;;7.88;;
20026;SDS011;10174;42.688;23.344;2023-04-07T08:08:12;17.00;;;7.70;;
20026;SDS011;10174;42.688;23.344;2023-04-07T08:10:38;16.63;;;8.77;;
20026;SDS011;10174;42.688;23.344;2023-04-07T08:13:03;23.63;;;9.38;;
20026;SDS011;10174;42.688;23.344;2023-04-07T08:15:29;24.33;;;9.57;;
20026;SDS011;10174;42.688;23.344;2023-04-07T08:17:54;16.50;;;7.72;;
20026;SDS011;10174;42.688;23.344;2023-04-07T08:20:20;20.77;;;7.60;;
20026;SDS011;10174;42.688;23.344;2023-04-07T08:22:45;20.92;;;8.07;;
20026;SDS011;10174;42.688;23.344;2023-04-07T08:25:11;16.25;;;7.95;;
20026;SDS011;10174;42.688;23.344;2023-04-07T08:27:36;15.05;;;7.75;;
20026;SDS011;10174;42.688;23.344;2023-04-07T08:30:03;16.67;;;8.02;;
20026;SDS011;10174;42.688;23.344;2023-04-07T08:32:34;16.75;;;8.50;;
20026;SDS011;10174;42.688;23.344;2023-04-07T08:35:08;16.38;;;7.78;;
20026;SDS011;10174;42.688;23.344;2023-04-07T08:37:35;16.52;;;8.68;;
20026;SDS011;10174;42.688;23.344;2023-04-07T08:40:02;18.48;;;9.20;;
20026;SDS011;10174;42.688;23.344;2023-04-07T08:42:28;16.17;;;8.48;;
20026;SDS011;10174;42.688;23.344;2023-04-07T08:45:04;15.82;;;9.52;;
20026;SDS011;10174;42.688;23.344;2023-04-07T08:47:31;14.68;;;8.80;;
20026;SDS011;10174;42.688;23.344;2023-04-07T08:50:03;15.90;;;8.00;;
20026;SDS011;10174;42.688;23.344;2023-04-07T08:52:37;12.40;;;8.13;;
20026;SDS011;10174;42.688;23.344;2023-04-07T08:55:08;16.77;;;7.95;;
20026;SDS011;10174;42.688;23.344;2023-04-07T08:57:33;13.30;;;7.07;;
20026;SDS011;10174;42.688;23.344;2023-04-07T09:00:00;18.02;;;8.82;;
20026;SDS011;10174;42.688;23.344;2023-04-07T09:02:33;16.52;;;8.85;;
20026;SDS011;10174;42.688;23.344;2023-04-07T09:05:04;17.27;;;9.00;;
20026;SDS011;10174;42.688;23.344;2023-04-07T09:07:31;14.13;;;7.68;;
20026;SDS011;10174;42.688;23.344;2023-04-07T09:09:58;14.77;;;8.98;;
20026;SDS011;10174;42.688;23.344;2023-04-07T09:12:24;17.90;;;10.10;;
20026;SDS011;10174;42.688;23.344;2023-04-07T09:14:52;15.85;;;9.65;;
20026;SDS011;10174;42.688;23.344;2023-04-07T09:17:18;22.90;;;11.98;;
20026;SDS011;10174;42.688;23.344;2023-04-07T09:19:43;14.98;;;8.70;;
20026;SDS011;10174;42.688;23.344;2023-04-07T09:22:09;15.20;;;9.57;;
20026;SDS011;10174;42.688;23.344;2023-04-07T09:24:38;16.00;;;10.07;;
20026;SDS011;10174;42.688;23.344;2023-04-07T09:27:14;17.73;;;10.20;;
20026;SDS011;10174;42.688;23.344;2023-04-07T09:29:42;16.23;;;10.57;;
20026;SDS011;10174;42.688;23.344;2023-04-07T09:32:09;16.67;;;9.75;;
20026;SDS011;10174;42.688;23.344;2023-04-07T09:34:36;14.93;;;9.60;;
20026;SDS011;10174;42.688;23.344;2023-04-07T09:37:03;14.60;;;9.38;;
20026;SDS011;10174;42.688;23.344;2023-04-07T09:39:30;22.92;;;11.05;;
20026;SDS011;10174;42.688;23.344;2023-04-07T09:41:56;17.05;;;9.15;;
20026;SDS011;10174;42.688;23.344;2023-04-07T09:44:22;16.52;;;9.25;;
20026;SDS011;10174;42.688;23.344;2023-04-07T09:46:49;18.48;;;9.98;;
20026;SDS011;10174;42.688;23.344;2023-04-07T09:49:23;22.13;;;9.70;;
20026;SDS011;10174;42.688;23.344;2023-04-07T09:51:58;23.35;;;10.77;;
20026;SDS011;10174;42.688;23.344;2023-04-07T09:54:40;16.13;;;9.73;;
20026;SDS011;10174;42.688;23.344;2023-04-07T09:57:10;16.58;;;9.73;;
20026;SDS011;10174;42.688;23.344;2023-04-07T09:59:37;17.35;;;10.00;;
20026;SDS011;10174;42.688;23.344;2023-04-07T10:02:04;17.63;;;9.57;;
20026;SDS011;10174;42.688;23.344;2023-04-07T10:04:30;17.48;;;9.68;;
20026;SDS011;10174;42.688;23.344;2023-04-07T10:06:57;15.10;;;8.93;;
20026;SDS011;10174;42.688;23.344;2023-04-07T10:09:24;18.42;;;10.65;;
20026;SDS011;10174;42.688;23.344;2023-04-07T10:11:52;25.13;;;10.02;;
20026;SDS011;10174;42.688;23.344;2023-04-07T10:14:19;16.38;;;9.25;;
20026;SDS011;10174;42.688;23.344;2023-04-07T10:16:47;17.23;;;9.50;;
20026;SDS011;10174;42.688;23.344;2023-04-07T10:19:13;17.05;;;9.23;;
20026;SDS011;10174;42.688;23.344;2023-04-07T10:21:39;19.50;;;9.80;;
20026;SDS011;10174;42.688;23.344;2023-04-07T10:26:49;16.13;;;11.05;;
20026;SDS011;10174;42.688;23.344;2023-04-07T10:29:18;24.58;;;10.65;;
20026;SDS011;10174;42.688;23.344;2023-04-07T10:31:46;17.38;;;10.55;;
20026;SDS011;10174;42.688;23.344;2023-04-07T10:34:12;17.63;;;10.02;;
20026;SDS011;10174;42.688;23.344;2023-04-07T10:39:37;19.15;;;9.60;;
20026;SDS011;10174;42.688;23.344;2023-04-07T10:42:02;22.83;;;10.02;;
20026;SDS011;10174;42.688;23.344;2023-04-07T10:47:03;23.55;;;9.70;;
20026;SDS011;10174;42.688;23.344;2023-04-07T10:49:30;22.00;;;11.10;;
20026;SDS011;10174;42.688;23.344;2023-04-07T10:52:38;22.83;;;11.52;;
20026;SDS011;10174;42.688;23.344;2023-04-07T10:54:46;18.13;;;10.18;;
20026;SDS011;10174;42.688;23.344;2023-04-07T10:57:12;16.10;;;9.70;;
20026;SDS011;10174;42.688;23.344;2023-04-07T11:00:24;18.35;;;10.27;;
20026;SDS011;10174;42.688;23.344;2023-04-07T11:02:34;18.65;;;10.68;;
20026;SDS011;10174;42.688;23.344;2023-04-07T11:05:02;17.60;;;10.13;;
20026;SDS011;10174;42.688;23.344;2023-04-07T11:07:44;19.52;;;10.45;;
20026;SDS011;10174;42.688;23.344;2023-04-07T11:10:13;20.92;;;10.48;;
20026;SDS011;10174;42.688;23.344;2023-04-07T11:12:40;14.43;;;9.10;;
20026;SDS011;10174;42.688;23.344;2023-04-07T11:15:16;17.50;;;10.57;;
20026;SDS011;10174;42.688;23.344;2023-04-07T11:17:43;19.40;;;10.43;;
20026;SDS011;10174;42.688;23.344;2023-04-07T11:20:08;18.10;;;11.00;;
20026;SDS011;10174;42.688;23.344;2023-04-07T11:22:34;21.02;;;10.68;;
20026;SDS011;10174;42.688;23.344;2023-04-07T11:25:01;17.77;;;10.18;;
20026;SDS011;10174;42.688;23.344;2023-04-07T11:27:26;22.02;;;11.50;;
20026;SDS011;10174;42.688;23.344;2023-04-07T11:29:53;21.50;;;9.95;;
20026;SDS011;10174;42.688;23.344;2023-04-07T11:32:22;20.88;;;10.73;;
20026;SDS011;10174;42.688;23.344;2023-04-07T11:34:53;21.98;;;11.13;;
20026;SDS011;10174;42.688;23.344;2023-04-07T11:37:23;19.42;;;10.43;;
20026;SDS011;10174;42.688;23.344;2023-04-07T11:39:54;17.27;;;10.15;;
20026;SDS011;10174;42.688;23.344;2023-04-07T11:42:34;16.35;;;10.32;;
20026;SDS011;10174;42.688;23.344;2023-04-07T11:45:01;21.85;;;11.35;;
20026;SDS011;10174;42.688;23.344;2023-04-07T11:47:34;17.52;;;10.13;;
20026;SDS011;10174;42.688;23.344;2023-04-07T11:50:00;20.25;;;10.65;;
20026;SDS011;10174;42.688;23.344;2023-04-07T11:52:26;18.52;;;10.63;;
20026;SDS011;10174;42.688;23.344;2023-04-07T11:54:52;16.88;;;10.55;;
20026;SDS011;10174;42.688;23.344;2023-04-07T11:57:24;18.13;;;10.68;;
20026;SDS011;10174;42.688;23.344;2023-04-07T11:59:50;16.52;;;10.43;;
20026;SDS011;10174;42.688;23.344;2023-04-07T12:02:29;20.52;;;11.45;;
20026;SDS011;10174;42.688;23.344;2023-04-07T12:04:56;26.17;;;10.85;;
20026;SDS011;10174;42.688;23.344;2023-04-07T12:07:21;27.58;;;11.77;;
20026;SDS011;10174;42.688;23.344;2023-04-07T12:09:47;16.60;;;10.43;;
20026;SDS011;10174;42.688;23.344;2023-04-07T12:12:13;19.30;;;11.43;;
20026;SDS011;10174;42.688;23.344;2023-04-07T12:14:38;19.17;;;10.95;;
20026;SDS011;10174;42.688;23.344;2023-04-07T12:17:03;16.63;;;10.85;;
20026;SDS011;10174;42.688;23.344;2023-04-07T12:19:29;20.13;;;11.98;;
20026;SDS011;10174;42.688;23.344;2023-04-07T12:21:59;17.00;;;10.52;;
20026;SDS011;10174;42.688;23.344;2023-04-07T12:24:25;19.23;;;11.60;;
20026;SDS011;10174;42.688;23.344;2023-04-07T12:26:51;16.60;;;11.27;;
20026;SDS011;10174;42.688;23.344;2023-04-07T12:29:17;21.38;;;12.57;;
20026;SDS011;10174;42.688;23.344;2023-04-07T12:31:43;18.92;;;11.27;;
20026;SDS011;10174;42.688;23.344;2023-04-07T12:34:09;17.17;;;11.20;;
20026;SDS011;10174;42.688;23.344;2023-04-07T12:36:34;19.48;;;11.02;;
20026;SDS011;10174;42.688;23.344;2023-04-07T12:39:00;21.50;;;11.20;;
20026;SDS011;10174;42.688;23.344;2023-04-07T12:41:25;22.27;;;12.30;;
20026;SDS011;10174;42.688;23.344;2023-04-07T12:43:51;17.63;;;11.45;;
20026;SDS011;10174;42.688;23.344;2023-04-07T12:46:17;19.60;;;11.68;;
20026;SDS011;10174;42.688;23.344;2023-04-07T12:48:43;22.38;;;12.25;;
20026;SDS011;10174;42.688;23.344;2023-04-07T12:51:09;22.10;;;12.65;;
20026;SDS011;10174;42.688;23.344;2023-04-07T12:53:35;19.67;;;12.15;;
20026;SDS011;10174;42.688;23.344;2023-04-07T12:56:00;26.05;;;15.40;;
20026;SDS011;10174;42.688;23.344;2023-04-07T12:58:26;19.85;;;12.45;;
20026;SDS011;10174;42.688;23.344;2023-04-07T13:00:52;21.67;;;12.07;;
20026;SDS011;10174;42.688;23.344;2023-04-07T13:03:17;21.90;;;12.55;;
20026;SDS011;10174;42.688;23.344;2023-04-07T13:05:43;25.95;;;12.57;;
20026;SDS011;10174;42.688;23.344;2023-04-07T13:08:08;19.25;;;11.43;;
20026;SDS011;10174;42.688;23.344;2023-04-07T13:10:34;20.63;;;11.95;;
20026;SDS011;10174;42.688;23.344;2023-04-07T13:12:59;19.52;;;11.93;;
20026;SDS011;10174;42.688;23.344;2023-04-07T13:15:25;21.75;;;11.68;;
20026;SDS011;10174;42.688;23.344;2023-04-07T13:17:52;24.13;;;11.23;;
20026;SDS011;10174;42.688;23.344;2023-04-07T13:20:17;22.75;;;14.88;;
20026;SDS011;10174;42.688;23.344;2023-04-07T13:22:43;25.73;;;11.68;;
20026;SDS011;10174;42.688;23.344;2023-04-07T13:25:08;25.67;;;10.98;;
20026;SDS011;10174;42.688;23.344;2023-04-07T13:27:34;19.33;;;11.35;;
20026;SDS011;10174;42.688;23.344;2023-04-07T13:29:59;18.35;;;11.75;;
20026;SDS011;10174;42.688;23.344;2023-04-07T13:32:25;22.20;;;11.35;;
20026;SDS011;10174;42.688;23.344;2023-04-07T13:34:51;21.38;;;11.85;;
20026;SDS011;10174;42.688;23.344;2023-04-07T13:37:16;20.33;;;12.02;;
20026;SDS011;10174;42.688;23.344;2023-04-07T13:39:43;20.45;;;11.82;;
20026;SDS011;10174;42.688;23.344;2023-04-07T13:42:09;20.35;;;11.75;;
20026;SDS011;10174;42.688;23.344;2023-04-07T13:44:34;25.45;;;11.90;;
20026;SDS011;10174;42.688;23.344;2023-04-07T13:47:01;17.73;;;10.73;;
20026;SDS011;10174;42.688;23.344;2023-04-07T13:49:27;17.88;;;11.23;;
20026;SDS011;10174;42.688;23.344;2023-04-07T13:51:53;19.52;;;11.25;;
20026;SDS011;10174;42.688;23.344;2023-04-07T13:54:18;21.65;;;12.15;;
20026;SDS011;10174;42.688;23.344;2023-04-07T13:56:44;18.75;;;11.13;;
20026;SDS011;10174;42.688;23.344;2023-04-07T13:59:11;23.63;;;11.68;;
20026;SDS011;10174;42.688;23.344;2023-04-07T14:01:36;20.35;;;11.48;;
20026;SDS011;10174;42.688;23.344;2023-04-07T14:04:03;19.65;;;11.60;;
20026;SDS011;10174;42.688;23.344;2023-04-07T14:06:29;18.42;;;11.40;;
20026;SDS011;10174;42.688;23.344;2023-04-07T14:08:55;25.50;;;12.55;;
20026;SDS011;10174;42.688;23.344;2023-04-07T14:11:21;25.27;;;12.75;;
20026;SDS011;10174;42.688;23.344;2023-04-07T14:13:47;20.00;;;12.40;;
20026;SDS011;10174;42.688;23.344;2023-04-07T14:16:13;23.02;;;12.07;;
20026;SDS011;10174;42.688;23.344;2023-04-07T14:18:38;23.17;;;12.40;;
20026;SDS011;10174;42.688;23.344;2023-04-07T14:21:04;21.13;;;12.10;;
20026;SDS011;10174;42.688;23.344;2023-04-07T14:23:30;22.38;;;12.45;;
20026;SDS011;10174;42.688;23.344;2023-04-07T14:25:58;21.13;;;13.07;;
20026;SDS011;10174;42.688;23.344;2023-04-07T14:28:25;22.65;;;13.02;;